createdAt,value
2023-05-25T00:00:53.492Z,34.90
2023-05-25T00:03:34.063Z,35.20
2023-05-25T00:06:02.756Z,43.60
2023-05-25T00:08:30.138Z,35.20
2023-05-25T00:10:57.715Z,33.50
2023-05-25T00:13:25.679Z,38.40
2023-05-25T00:15:53.298Z,42.10
2023-05-25T00:18:21.173Z,40.80
2023-05-25T00:20:48.736Z,42.10
2023-05-25T00:23:16.187Z,39.70
2023-05-25T00:25:43.602Z,41.40
2023-05-25T00:28:11.857Z,41.60
2023-05-25T00:30:39.531Z,41.40
2023-05-25T00:33:07.194Z,46.70
2023-05-25T00:35:34.536Z,48.10
2023-05-25T00:38:01.687Z,42.60
2023-05-25T00:40:29.136Z,46.40
2023-05-25T00:42:57.089Z,51.20
2023-05-25T00:45:24.843Z,46.30
2023-05-25T00:47:54.543Z,49.50
2023-05-25T00:50:35.424Z,45.10
2023-05-25T00:53:03.080Z,50.60
2023-05-25T00:55:34.945Z,46.70
2023-05-25T00:58:05.047Z,51.10
2023-05-25T01:00:34.428Z,56.00
2023-05-25T01:03:02.296Z,56.00
2023-05-25T01:05:31.123Z,57.20
2023-05-25T01:08:03.598Z,60.30
2023-05-25T01:10:32.877Z,64.50
2023-05-25T01:13:01.084Z,54.70
2023-05-25T01:15:29.728Z,66.60
2023-05-25T01:17:59.705Z,65.10
2023-05-25T01:20:30.164Z,70.10
2023-05-25T01:23:01.753Z,64.20
2023-05-25T01:25:34.580Z,72.30
2023-05-25T01:28:08.154Z,68.90
2023-05-25T01:30:38.055Z,71.60
2023-05-25T01:33:06.417Z,76.30
2023-05-25T01:35:36.707Z,75.50
2023-05-25T01:38:04.417Z,69.40
2023-05-25T01:40:32.014Z,74.80
2023-05-25T01:43:01.493Z,70.10
2023-05-25T01:45:29.353Z,70.50
2023-05-25T01:48:08.631Z,69.50
2023-05-25T01:50:44.577Z,70.70
2023-05-25T01:53:20.278Z,63.30
2023-05-25T01:55:55.130Z,57.50
2023-05-25T01:58:23.811Z,61.80
2023-05-25T02:00:52.912Z,62.80
2023-05-25T02:03:21.402Z,65.70
2023-05-25T02:05:50.211Z,59.50
2023-05-25T02:08:17.843Z,57.00
2023-05-25T02:10:45.130Z,63.90
2023-05-25T02:13:12.761Z,55.00
2023-05-25T02:15:39.885Z,58.10
2023-05-25T02:18:08.898Z,57.00
2023-05-25T02:20:37.586Z,61.10
2023-05-25T02:23:05.201Z,53.10
2023-05-25T02:25:32.332Z,56.00
2023-05-25T02:28:00.170Z,62.20
2023-05-25T02:30:27.827Z,60.40
2023-05-25T02:32:55.488Z,55.60
2023-05-25T02:35:23.386Z,59.30
2023-05-25T02:37:52.066Z,57.90
2023-05-25T02:40:20.314Z,55.70
2023-05-25T02:42:47.913Z,59.80
2023-05-25T02:45:15.706Z,58.20
2023-05-25T02:47:42.915Z,56.10
2023-05-25T02:50:11.595Z,57.40
2023-05-25T02:52:43.136Z,55.30
2023-05-25T02:55:13.434Z,53.20
2023-05-25T02:57:41.232Z,52.50
2023-05-25T03:00:12.487Z,54.40
2023-05-25T03:02:40.097Z,49.40
2023-05-25T03:05:09.084Z,51.50
2023-05-25T03:07:36.615Z,57.30
2023-05-25T03:10:04.072Z,48.60
2023-05-25T03:12:33.022Z,59.50
2023-05-25T03:15:00.400Z,56.80
2023-05-25T03:17:27.968Z,56.20
2023-05-25T03:19:55.207Z,49.50
2023-05-25T03:22:22.446Z,48.00
2023-05-25T03:24:50.385Z,57.40
2023-05-25T03:27:17.824Z,52.20
2023-05-25T03:29:45.626Z,56.80
2023-05-25T03:32:14.042Z,52.60
2023-05-25T03:34:41.540Z,55.00
2023-05-25T03:37:12.276Z,56.50
2023-05-25T03:39:40.120Z,56.00
2023-05-25T03:42:08.347Z,55.40
2023-05-25T03:44:37.255Z,53.00
2023-05-25T03:47:06.097Z,56.40
2023-05-25T03:49:33.406Z,53.50
2023-05-25T03:52:01.424Z,58.20
2023-05-25T03:54:28.665Z,51.90
2023-05-25T03:57:12.068Z,50.80
2023-05-25T03:59:39.645Z,50.20
2023-05-25T04:02:07.104Z,52.70
2023-05-25T04:04:34.770Z,49.70
2023-05-25T04:07:03.527Z,45.50
2023-05-25T04:09:31.086Z,51.60
2023-05-25T04:11:58.344Z,47.80
2023-05-25T04:14:25.727Z,45.40
2023-05-25T04:16:53.533Z,48.80
2023-05-25T04:19:20.616Z,49.80
2023-05-25T04:21:48.109Z,52.80
2023-05-25T04:24:16.234Z,45.50
2023-05-25T04:26:43.792Z,45.00
2023-05-25T04:29:12.268Z,44.30
2023-05-25T04:31:59.554Z,46.20
2023-05-25T04:34:45.177Z,46.50
2023-05-25T04:37:18.188Z,48.10
2023-05-25T04:39:46.266Z,44.60
2023-05-25T04:42:13.578Z,55.10
2023-05-25T04:44:41.145Z,51.20
2023-05-25T04:47:10.866Z,44.90
2023-05-25T04:49:39.025Z,45.50
2023-05-25T04:52:09.051Z,46.00
2023-05-25T04:54:37.121Z,42.00
2023-05-25T04:57:05.052Z,46.40
2023-05-25T04:59:32.644Z,49.00
2023-05-25T05:02:01.125Z,45.90
2023-05-25T05:04:28.380Z,44.40
2023-05-25T05:06:58.778Z,40.60
2023-05-25T05:09:28.105Z,41.90
2023-05-25T05:11:57.617Z,48.20
2023-05-25T05:14:24.799Z,50.20
2023-05-25T05:16:53.455Z,43.40
2023-05-25T05:19:21.739Z,51.00
2023-05-25T05:21:52.569Z,42.00
2023-05-25T05:24:20.713Z,49.50
2023-05-25T05:26:58.223Z,48.50
2023-05-25T05:29:47.942Z,45.50
2023-05-25T05:32:15.982Z,42.80
2023-05-25T05:34:43.648Z,40.30
2023-05-25T05:37:22.877Z,44.70
2023-05-25T05:39:52.919Z,42.30
2023-05-25T05:42:20.447Z,42.70
2023-05-25T05:44:47.770Z,42.40
2023-05-25T05:47:15.059Z,46.40
2023-05-25T05:49:42.718Z,44.90
2023-05-25T05:52:11.868Z,48.10
2023-05-25T05:54:39.692Z,43.90
2023-05-25T05:57:11.131Z,42.70
2023-05-25T05:59:38.318Z,39.20
2023-05-25T06:02:07.600Z,42.80
2023-05-25T06:04:35.693Z,42.20
2023-05-25T06:07:03.930Z,40.80
2023-05-25T06:09:31.082Z,46.20
2023-05-25T06:12:00.539Z,39.30
2023-05-25T06:14:28.947Z,42.60
2023-05-25T06:16:58.809Z,38.40
2023-05-25T06:19:26.544Z,37.90
2023-05-25T06:21:54.303Z,38.60
2023-05-25T06:24:21.760Z,39.60
2023-05-25T06:26:49.556Z,40.50
2023-05-25T06:29:17.580Z,39.60
2023-05-25T06:31:44.887Z,35.20
2023-05-25T06:34:12.722Z,39.80
2023-05-25T06:36:41.787Z,45.00
2023-05-25T06:39:10.403Z,36.10
2023-05-25T06:41:41.420Z,43.00
2023-05-25T06:44:08.614Z,38.60
2023-05-25T06:46:46.486Z,41.10
2023-05-25T06:49:15.582Z,42.80
2023-05-25T06:51:43.013Z,37.00
2023-05-25T06:54:12.071Z,40.10
2023-05-25T06:56:39.309Z,37.30
2023-05-25T06:59:06.659Z,39.00
2023-05-25T07:01:34.364Z,40.00
2023-05-25T07:04:01.718Z,41.40
2023-05-25T07:06:28.848Z,41.20
2023-05-25T07:08:56.711Z,39.40
2023-05-25T07:11:23.860Z,40.40
2023-05-25T07:13:51.002Z,39.50
2023-05-25T07:16:18.359Z,37.90
2023-05-25T07:18:45.594Z,36.30
2023-05-25T07:21:12.835Z,36.00
2023-05-25T07:23:41.256Z,35.30
2023-05-25T07:26:08.405Z,39.50
2023-05-25T07:28:35.616Z,36.40
2023-05-25T07:31:02.958Z,37.20
2023-05-25T07:33:30.111Z,40.30
2023-05-25T07:35:57.214Z,37.50
2023-05-25T07:38:24.543Z,33.10
2023-05-25T07:40:52.734Z,34.80
2023-05-25T07:43:21.176Z,35.60
2023-05-25T07:45:48.588Z,36.30
2023-05-25T07:48:16.326Z,40.10
2023-05-25T07:50:43.776Z,36.20
2023-05-25T07:53:11.325Z,32.00
2023-05-25T07:55:38.617Z,33.40
2023-05-25T07:58:07.613Z,38.80
2023-05-25T08:00:34.862Z,31.20
2023-05-25T08:03:02.877Z,29.60
2023-05-25T08:05:30.717Z,36.40
2023-05-25T08:07:58.092Z,33.50
2023-05-25T08:10:31.520Z,31.50
2023-05-25T08:12:59.637Z,32.40
2023-05-25T08:15:27.856Z,31.20
2023-05-25T08:17:57.195Z,33.90
2023-05-25T08:20:26.245Z,29.10
2023-05-25T08:22:54.830Z,31.10
2023-05-25T08:25:22.521Z,31.20
2023-05-25T08:27:49.958Z,27.60
2023-05-25T08:30:17.519Z,29.30
2023-05-25T08:32:45.444Z,29.30
2023-05-25T08:35:14.451Z,29.40
2023-05-25T08:37:43.740Z,33.90
2023-05-25T08:40:17.631Z,29.50
2023-05-25T08:42:46.114Z,26.70
2023-05-25T08:45:26.383Z,22.00
2023-05-25T08:48:02.811Z,24.50
2023-05-25T08:50:32.556Z,28.20
2023-05-25T08:53:03.306Z,24.00
2023-05-25T08:55:36.554Z,23.40
2023-05-25T08:58:08.447Z,21.70
2023-05-25T09:00:40.087Z,26.10
2023-05-25T09:03:12.993Z,26.60
2023-05-25T09:05:42.152Z,23.40
2023-05-25T09:08:10.502Z,28.40
2023-05-25T09:10:38.506Z,25.80
2023-05-25T09:13:20.544Z,21.90
2023-05-25T09:15:49.177Z,25.20
2023-05-25T09:18:16.281Z,22.30
2023-05-25T09:20:46.233Z,24.50
2023-05-25T09:23:14.513Z,22.20
2023-05-25T09:25:43.976Z,25.60
2023-05-25T09:30:42.793Z,27.20
2023-05-25T09:33:14.297Z,22.90
2023-05-25T09:35:42.600Z,20.70
2023-05-25T09:38:10.286Z,28.60
2023-05-25T09:40:39.376Z,27.80
2023-05-25T09:43:06.834Z,24.10
2023-05-25T09:45:35.136Z,23.20
2023-05-25T09:48:04.025Z,22.80
2023-05-25T09:50:32.650Z,26.60
2023-05-25T09:53:02.320Z,25.70
2023-05-25T09:55:40.321Z,28.50
2023-05-25T09:58:18.336Z,23.90
2023-05-25T10:00:46.806Z,23.30
2023-05-25T10:03:15.575Z,24.10
2023-05-25T10:05:42.960Z,22.70
2023-05-25T10:08:11.961Z,27.80
2023-05-25T10:10:40.196Z,26.00
2023-05-25T10:13:11.389Z,24.30
2023-05-25T10:15:41.858Z,26.00
2023-05-25T10:18:10.557Z,26.10
2023-05-25T10:20:39.420Z,24.40
2023-05-25T10:23:11.250Z,20.60
2023-05-25T10:25:45.423Z,23.40
2023-05-25T10:28:16.713Z,25.80
2023-05-25T10:30:44.387Z,22.90
2023-05-25T10:33:13.602Z,25.90
2023-05-25T10:36:01.691Z,33.50
2023-05-25T10:38:31.813Z,28.00
2023-05-25T10:40:59.653Z,25.30
2023-05-25T10:43:27.789Z,26.00
2023-05-25T10:45:56.189Z,21.90
2023-05-25T10:48:24.909Z,21.70
2023-05-25T10:50:54.299Z,25.40
2023-05-25T10:53:23.287Z,29.90
2023-05-25T10:56:05.633Z,29.50
2023-05-25T10:58:34.443Z,23.70
2023-05-25T11:01:03.509Z,52.70
2023-05-25T11:03:51.852Z,24.70
2023-05-25T11:06:21.669Z,24.90
2023-05-25T11:08:59.198Z,22.90
2023-05-25T11:12:06.650Z,16.90
2023-05-25T11:14:37.309Z,19.30
2023-05-25T11:17:13.110Z,20.40
2023-05-25T11:19:46.277Z,20.60
2023-05-25T11:22:20.791Z,22.20
2023-05-25T11:24:48.225Z,28.20
2023-05-25T11:27:15.675Z,17.90
2023-05-25T11:29:42.976Z,24.10
2023-05-25T11:32:15.520Z,22.30
2023-05-25T11:34:46.940Z,21.60
2023-05-25T11:37:16.181Z,16.30
2023-05-25T11:39:44.109Z,18.70
2023-05-25T11:42:12.467Z,14.20
2023-05-25T11:44:39.745Z,20.60
2023-05-25T11:47:09.995Z,17.20
2023-05-25T11:49:40.217Z,15.80
2023-05-25T11:52:09.711Z,23.70
2023-05-25T11:54:37.791Z,19.20
2023-05-25T11:57:05.150Z,17.50
2023-05-25T11:59:33.642Z,18.40
2023-05-25T12:02:05.276Z,17.00
2023-05-25T12:04:34.299Z,13.80
2023-05-25T12:07:09.096Z,18.80
2023-05-25T12:09:38.007Z,15.80
2023-05-25T12:12:06.712Z,17.00
2023-05-25T12:14:37.516Z,16.20
2023-05-25T12:17:04.927Z,19.70
2023-05-25T12:19:32.468Z,18.30
2023-05-25T12:22:00.120Z,15.60
2023-05-25T12:24:27.542Z,15.40
2023-05-25T12:26:57.666Z,18.70
2023-05-25T12:29:25.561Z,17.00
2023-05-25T12:31:53.102Z,20.20
2023-05-25T12:34:21.569Z,15.30
2023-05-25T12:36:52.964Z,15.40
2023-05-25T12:39:35.149Z,16.90
2023-05-25T12:42:03.919Z,14.30
2023-05-25T12:44:32.710Z,15.20
2023-05-25T12:47:13.174Z,12.90
2023-05-25T12:49:41.756Z,18.70
2023-05-25T12:52:10.228Z,22.30
2023-05-25T12:54:41.093Z,15.10
2023-05-25T12:57:09.347Z,24.10
2023-05-25T12:59:37.484Z,12.40
2023-05-25T13:02:06.542Z,14.90
2023-05-25T13:04:33.861Z,14.20
2023-05-25T13:07:01.748Z,13.30
2023-05-25T13:09:29.549Z,12.80
2023-05-25T13:11:57.757Z,12.50
2023-05-25T13:14:25.492Z,14.80
2023-05-25T13:16:54.065Z,10.70
2023-05-25T13:19:23.111Z,11.80
2023-05-25T13:21:51.930Z,12.90
2023-05-25T13:24:19.804Z,14.20
2023-05-25T13:26:49.159Z,14.70
2023-05-25T13:29:17.989Z,10.30
2023-05-25T13:31:45.418Z,13.50
2023-05-25T13:34:12.698Z,15.80
2023-05-25T13:36:39.921Z,15.20
2023-05-25T13:39:07.592Z,13.70
2023-05-25T13:41:35.069Z,17.10
2023-05-25T13:44:02.806Z,12.70
2023-05-25T13:46:35.280Z,17.20
2023-05-25T13:49:02.866Z,14.90
2023-05-25T13:51:30.128Z,18.10
2023-05-25T13:53:57.535Z,14.90
2023-05-25T13:56:24.635Z,18.60
2023-05-25T13:58:52.061Z,16.70
2023-05-25T14:01:19.395Z,16.10
2023-05-25T14:03:47.088Z,16.70
2023-05-25T14:06:14.736Z,21.20
2023-05-25T14:08:41.988Z,13.60
2023-05-25T14:11:09.500Z,17.70
2023-05-25T14:13:37.075Z,15.10
2023-05-25T14:16:04.666Z,15.80
2023-05-25T14:18:31.849Z,14.50
2023-05-25T14:20:59.623Z,15.10
2023-05-25T14:23:26.779Z,11.20
2023-05-25T14:25:54.036Z,18.10
2023-05-25T14:28:21.303Z,19.40
2023-05-25T14:30:48.679Z,16.60
2023-05-25T14:33:17.361Z,16.00
2023-05-25T14:35:45.022Z,15.70
2023-05-25T14:38:12.512Z,15.10
2023-05-25T14:40:39.589Z,18.30
2023-05-25T14:43:06.936Z,13.70
2023-05-25T14:45:34.286Z,21.10
2023-05-25T14:48:15.276Z,13.40
2023-05-25T14:50:44.768Z,15.80
2023-05-25T14:53:12.311Z,14.40
2023-05-25T14:55:41.007Z,17.50
2023-05-25T14:58:08.304Z,16.20
2023-05-25T15:00:35.410Z,12.10
2023-05-25T15:03:03.140Z,12.20
2023-05-25T15:05:30.625Z,13.00
2023-05-25T15:07:59.193Z,10.10
2023-05-25T15:10:26.890Z,11.40
2023-05-25T15:12:54.002Z,14.90
2023-05-25T15:15:21.156Z,11.30
2023-05-25T15:17:48.264Z,12.70
2023-05-25T15:20:15.793Z,14.70
2023-05-25T15:22:42.975Z,12.80
2023-05-25T15:25:10.526Z,14.30
2023-05-25T15:27:37.624Z,13.00
2023-05-25T15:30:07.402Z,15.00
2023-05-25T15:32:34.594Z,12.10
2023-05-25T15:35:01.812Z,12.90
2023-05-25T15:37:28.923Z,17.60
2023-05-25T15:39:56.476Z,13.80
2023-05-25T15:42:23.661Z,13.30
2023-05-25T15:44:51.059Z,17.30
2023-05-25T15:47:18.353Z,14.20
2023-05-25T15:49:45.529Z,13.90
2023-05-25T15:52:12.703Z,14.90
2023-05-25T15:54:39.828Z,14.40
2023-05-25T15:57:07.656Z,14.20
2023-05-25T15:59:34.874Z,16.00
2023-05-25T16:02:02.057Z,12.00
2023-05-25T16:04:29.276Z,12.30
2023-05-25T16:06:56.338Z,11.90
2023-05-25T16:09:23.485Z,14.90
2023-05-25T16:11:51.539Z,11.40
2023-05-25T16:14:18.812Z,12.40
2023-05-25T16:16:46.046Z,18.20
2023-05-25T16:19:14.198Z,16.50
2023-05-25T16:21:41.764Z,15.30
2023-05-25T16:24:09.527Z,14.70
2023-05-25T16:26:36.710Z,11.40
2023-05-25T16:29:04.074Z,13.60
2023-05-25T16:31:31.272Z,16.10
2023-05-25T16:33:58.452Z,13.90
2023-05-25T16:36:26.829Z,13.10
2023-05-25T16:38:54.077Z,14.20
2023-05-25T16:41:21.204Z,16.70
2023-05-25T16:43:48.609Z,15.20
2023-05-25T16:46:15.746Z,15.80
2023-05-25T16:48:42.924Z,17.00
2023-05-25T16:51:15.209Z,12.60
2023-05-25T16:53:43.862Z,19.60
2023-05-25T16:56:11.237Z,21.80
2023-05-25T16:58:38.422Z,19.10
2023-05-25T17:01:05.672Z,18.30
2023-05-25T17:03:33.090Z,14.40
2023-05-25T17:06:00.474Z,13.90
2023-05-25T17:08:28.038Z,13.00
2023-05-25T17:10:55.354Z,13.70
2023-05-25T17:13:22.983Z,11.90
2023-05-25T17:15:50.431Z,14.40
2023-05-25T17:18:18.008Z,14.70
2023-05-25T17:20:45.408Z,12.50
2023-05-25T17:23:12.712Z,15.00
2023-05-25T17:25:40.707Z,12.80
2023-05-25T17:28:08.399Z,15.10
2023-05-25T17:30:35.564Z,12.50
2023-05-25T17:33:02.913Z,11.70
2023-05-25T17:35:30.413Z,13.20
2023-05-25T17:37:57.898Z,16.10
2023-05-25T17:40:25.267Z,15.50
2023-05-25T17:42:52.448Z,13.60
2023-05-25T17:45:19.645Z,19.60
2023-05-25T17:47:46.807Z,14.70
2023-05-25T17:50:14.308Z,12.80
2023-05-25T17:52:42.756Z,10.30
2023-05-25T17:55:10.830Z,16.50
2023-05-25T17:57:38.020Z,21.00
2023-05-25T18:00:08.516Z,13.50
2023-05-25T18:02:44.859Z,16.40
2023-05-25T18:05:12.154Z,13.30
2023-05-25T18:07:39.310Z,16.40
2023-05-25T18:10:07.079Z,13.80
2023-05-25T18:12:34.317Z,15.20
2023-05-25T18:15:01.558Z,10.70
2023-05-25T18:17:28.682Z,16.40
2023-05-25T18:19:55.967Z,11.30
2023-05-25T18:22:23.346Z,14.40
2023-05-25T18:24:50.749Z,16.00
2023-05-25T18:27:17.878Z,13.90
2023-05-25T18:29:45.071Z,13.30
2023-05-25T18:32:12.158Z,16.70
2023-05-25T18:34:39.264Z,15.20
2023-05-25T18:37:06.713Z,15.50
2023-05-25T18:39:33.946Z,13.90
2023-05-25T18:42:01.745Z,12.20
2023-05-25T18:44:29.099Z,12.70
2023-05-25T18:46:57.021Z,14.60
2023-05-25T18:49:24.712Z,13.70
2023-05-25T18:51:51.972Z,14.60
2023-05-25T18:54:19.140Z,14.30
2023-05-25T18:56:46.518Z,14.20
2023-05-25T18:59:13.852Z,15.20
2023-05-25T19:01:41.036Z,13.90
2023-05-25T19:04:08.484Z,16.00
2023-05-25T19:06:36.270Z,13.70
2023-05-25T19:09:05.027Z,16.30
2023-05-25T19:11:32.334Z,14.60
2023-05-25T19:13:59.964Z,17.40
2023-05-25T19:16:27.501Z,15.40
2023-05-25T19:18:55.065Z,15.10
2023-05-25T19:21:22.361Z,17.40
2023-05-25T19:23:50.327Z,14.40
2023-05-25T19:26:18.025Z,17.20
2023-05-25T19:28:45.179Z,13.30
2023-05-25T19:31:12.601Z,16.70
2023-05-25T19:33:39.796Z,13.70
2023-05-25T19:36:07.518Z,14.00
2023-05-25T19:38:41.100Z,18.80
2023-05-25T19:41:09.678Z,15.90
2023-05-25T19:43:37.453Z,13.20
2023-05-25T19:46:05.183Z,13.20
2023-05-25T19:48:32.457Z,16.30
2023-05-25T19:51:01.186Z,13.40
2023-05-25T19:53:29.034Z,15.00
2023-05-25T19:55:56.308Z,14.20
2023-05-25T19:58:23.526Z,15.60
2023-05-25T20:00:51.006Z,13.20
2023-05-25T20:03:18.748Z,14.00
2023-05-25T20:05:46.556Z,13.30
2023-05-25T20:08:14.106Z,16.60
2023-05-25T20:10:42.468Z,21.30
2023-05-25T20:13:10.217Z,17.40
2023-05-25T20:15:37.585Z,14.60
2023-05-25T20:18:04.981Z,16.00
2023-05-25T20:20:32.356Z,15.10
2023-05-25T20:22:59.766Z,12.70
2023-05-25T20:25:27.070Z,17.60
2023-05-25T20:27:54.626Z,17.90
2023-05-25T20:30:22.289Z,17.20
2023-05-25T20:32:49.449Z,17.10
2023-05-25T20:35:17.239Z,15.60
2023-05-25T20:37:44.369Z,15.10
2023-05-25T20:40:12.404Z,17.00
2023-05-25T20:42:39.587Z,12.70
2023-05-25T20:45:07.851Z,14.60
2023-05-25T20:47:35.092Z,20.30
2023-05-25T20:50:02.353Z,15.20
2023-05-25T20:52:29.594Z,15.30
2023-05-25T20:54:56.738Z,19.40
2023-05-25T20:57:27.032Z,16.00
2023-05-25T20:59:59.706Z,22.40
2023-05-25T21:02:27.082Z,23.90
2023-05-25T21:04:54.842Z,18.50
2023-05-25T21:07:21.957Z,17.70
2023-05-25T21:09:49.414Z,22.20
2023-05-25T21:12:16.954Z,19.30
2023-05-25T21:14:44.100Z,20.20
2023-05-25T21:17:11.227Z,18.30
2023-05-25T21:19:38.378Z,17.90
2023-05-25T21:22:06.005Z,16.80
2023-05-25T21:24:33.354Z,20.70
2023-05-25T21:27:01.619Z,18.80
2023-05-25T21:29:28.739Z,15.20
2023-05-25T21:31:55.930Z,14.50
2023-05-25T21:34:23.291Z,12.80
2023-05-25T21:36:50.724Z,13.20
2023-05-25T21:39:20.049Z,15.30
2023-05-25T21:41:47.558Z,15.70
2023-05-25T21:44:14.644Z,13.20
2023-05-25T21:46:41.737Z,11.00
2023-05-25T21:49:08.867Z,12.20
2023-05-25T21:51:36.570Z,12.50
2023-05-25T21:54:03.747Z,13.60
2023-05-25T21:56:30.694Z,13.40
2023-05-25T21:58:57.810Z,13.30
2023-05-25T22:01:25.473Z,12.80
2023-05-25T22:03:52.410Z,17.00
2023-05-25T22:06:19.526Z,14.50
2023-05-25T22:08:46.779Z,13.50
2023-05-25T22:11:13.723Z,12.90
2023-05-25T22:13:40.682Z,14.90
2023-05-25T22:16:08.100Z,12.80
2023-05-25T22:18:37.074Z,11.80
2023-05-25T22:21:05.504Z,13.40
2023-05-25T22:23:32.398Z,11.60
2023-05-25T22:25:59.375Z,13.50
2023-05-25T22:28:26.641Z,11.50
2023-05-25T22:30:53.727Z,15.10
2023-05-25T22:33:20.726Z,13.60
2023-05-25T22:35:47.938Z,15.00
2023-05-25T22:38:15.640Z,15.90
2023-05-25T22:40:47.502Z,17.50
2023-05-25T22:43:14.779Z,14.80
2023-05-25T22:45:42.744Z,14.30
2023-05-25T22:48:10.413Z,12.80
2023-05-25T22:50:37.472Z,12.90
2023-05-25T22:53:07.024Z,15.00
2023-05-25T22:55:33.882Z,12.80
2023-05-25T22:58:00.978Z,11.50
2023-05-25T23:00:28.229Z,10.80
2023-05-25T23:02:59.073Z,12.30
2023-05-25T23:05:27.441Z,11.90
2023-05-25T23:07:54.435Z,14.10
2023-05-25T23:10:21.590Z,11.30
2023-05-25T23:12:48.692Z,12.10
2023-05-25T23:15:18.393Z,12.30
2023-05-25T23:17:45.516Z,14.30
2023-05-25T23:20:15.077Z,11.00
2023-05-25T23:22:43.148Z,10.00
2023-05-25T23:25:11.390Z,13.50
2023-05-25T23:27:38.658Z,9.40
2023-05-25T23:30:08.886Z,11.20
2023-05-25T23:32:36.244Z,10.00
2023-05-25T23:35:03.388Z,9.50
2023-05-25T23:37:30.286Z,13.80
2023-05-25T23:39:57.870Z,12.30
2023-05-25T23:42:24.937Z,9.80
2023-05-25T23:44:51.916Z,11.20
2023-05-25T23:47:18.827Z,9.50
2023-05-25T23:49:46.123Z,10.20
2023-05-25T23:52:13.015Z,11.50
2023-05-25T23:54:39.881Z,11.20
2023-05-25T23:57:07.453Z,9.40
2023-05-25T23:59:34.312Z,12.10
